createdAt,value
2023-09-09T00:02:16.912Z,12.47
2023-09-09T00:05:06.940Z,13.13
2023-09-09T00:07:56.317Z,12.63
2023-09-09T00:10:47.281Z,12.20
2023-09-09T00:13:36.789Z,12.40
2023-09-09T00:16:26.340Z,11.63
2023-09-09T00:19:15.923Z,11.53
2023-09-09T00:22:05.753Z,12.10
2023-09-09T00:24:55.080Z,12.07
2023-09-09T00:27:45.752Z,12.40
2023-09-09T00:30:35.788Z,12.03
2023-09-09T00:33:25.166Z,11.70
2023-09-09T00:36:15.518Z,11.63
2023-09-09T00:39:05.517Z,12.37
2023-09-09T00:41:54.958Z,12.27
2023-09-09T00:44:45.677Z,11.70
2023-09-09T00:47:36.188Z,11.70
2023-09-09T00:50:26.373Z,12.17
2023-09-09T00:53:15.971Z,11.70
2023-09-09T00:56:08.056Z,11.80
2023-09-09T00:58:57.610Z,12.00
2023-09-09T01:01:48.846Z,11.70
2023-09-09T01:04:38.525Z,11.30
2023-09-09T01:07:27.978Z,11.90
2023-09-09T01:10:19.766Z,12.17
2023-09-09T01:13:09.581Z,12.30
2023-09-09T01:15:59.100Z,12.07
2023-09-09T01:18:49.884Z,12.10
2023-09-09T01:21:42.021Z,12.37
2023-09-09T01:24:33.205Z,11.40
2023-09-09T01:27:22.512Z,12.10
2023-09-09T01:30:13.395Z,12.07
2023-09-09T01:33:03.215Z,12.20
2023-09-09T01:35:52.562Z,11.90
2023-09-09T01:38:41.938Z,12.20
2023-09-09T01:41:32.600Z,12.50
2023-09-09T01:44:22.065Z,11.80
2023-09-09T01:47:11.636Z,11.90
2023-09-09T01:50:01.136Z,12.60
2023-09-09T01:52:50.552Z,11.90
2023-09-09T01:55:39.901Z,12.50
2023-09-09T01:58:30.904Z,11.90
2023-09-09T02:01:20.256Z,12.43
2023-09-09T02:04:09.761Z,12.43
2023-09-09T02:06:59.229Z,12.23
2023-09-09T02:09:48.667Z,11.50
2023-09-09T02:12:38.028Z,12.00
2023-09-09T02:15:28.765Z,12.97
2023-09-09T02:18:18.182Z,13.20
2023-09-09T02:21:07.753Z,13.10
2023-09-09T02:23:57.222Z,13.30
2023-09-09T02:26:46.559Z,13.00
2023-09-09T02:29:35.949Z,13.33
2023-09-09T02:32:26.866Z,12.53
2023-09-09T02:35:16.480Z,12.27
2023-09-09T02:38:06.053Z,13.30
2023-09-09T02:40:55.477Z,12.10
2023-09-09T02:43:44.854Z,12.27
2023-09-09T02:46:34.742Z,12.40
2023-09-09T02:49:25.559Z,12.30
2023-09-09T02:52:15.767Z,12.27
2023-09-09T02:55:05.921Z,12.23
2023-09-09T02:57:55.498Z,12.00
2023-09-09T03:00:45.053Z,12.90
2023-09-09T03:03:35.581Z,12.53
2023-09-09T03:06:26.701Z,12.33
2023-09-09T03:09:16.730Z,12.00
2023-09-09T03:12:08.210Z,13.00
2023-09-09T03:14:58.090Z,12.50
2023-09-09T03:17:47.471Z,12.53
2023-09-09T03:20:36.897Z,12.30
2023-09-09T03:23:27.631Z,12.10
2023-09-09T03:26:19.984Z,11.90
2023-09-09T03:29:09.413Z,12.30
2023-09-09T03:31:58.838Z,12.30
2023-09-09T03:34:48.218Z,11.83
2023-09-09T03:37:37.676Z,12.93
2023-09-09T03:40:29.869Z,12.07
2023-09-09T03:43:19.298Z,11.90
2023-09-09T03:46:09.552Z,12.33
2023-09-09T03:48:59.088Z,12.03
2023-09-09T03:51:49.317Z,12.07
2023-09-09T03:54:38.668Z,12.53
2023-09-09T03:57:29.488Z,12.17
2023-09-09T04:00:19.723Z,11.93
2023-09-09T04:03:09.341Z,12.43
2023-09-09T04:05:58.809Z,11.80
2023-09-09T04:08:48.624Z,12.60
2023-09-09T04:11:38.043Z,12.87
2023-09-09T04:14:28.830Z,12.90
2023-09-09T04:17:18.232Z,12.53
2023-09-09T04:20:09.968Z,12.40
2023-09-09T04:22:59.912Z,13.10
2023-09-09T04:25:49.705Z,12.43
2023-09-09T04:28:39.238Z,12.30
2023-09-09T04:31:30.040Z,12.40
2023-09-09T04:34:19.609Z,12.30
2023-09-09T04:37:09.110Z,12.43
2023-09-09T04:39:58.629Z,11.93
2023-09-09T04:42:48.370Z,11.53
2023-09-09T04:45:37.767Z,12.27
2023-09-09T04:48:28.764Z,11.80
2023-09-09T04:51:18.277Z,11.23
2023-09-09T04:54:08.066Z,12.30
2023-09-09T04:56:57.544Z,12.40
2023-09-09T04:59:46.921Z,12.43
2023-09-09T05:02:36.866Z,11.33
2023-09-09T05:05:27.686Z,11.33
2023-09-09T05:08:17.189Z,11.43
2023-09-09T05:11:06.728Z,11.90
2023-09-09T05:13:57.546Z,11.70
2023-09-09T05:16:46.971Z,11.60
2023-09-09T05:19:36.654Z,12.23
2023-09-09T05:22:27.718Z,12.53
2023-09-09T05:25:17.232Z,12.10
2023-09-09T05:28:07.182Z,12.20
2023-09-09T05:30:56.792Z,12.90
2023-09-09T05:33:46.306Z,13.13
2023-09-09T05:36:36.113Z,12.70
2023-09-09T05:39:26.824Z,12.63
2023-09-09T05:42:16.273Z,11.70
2023-09-09T05:45:06.737Z,12.20
2023-09-09T05:47:56.598Z,12.03
2023-09-09T05:50:46.057Z,12.37
2023-09-09T05:53:36.241Z,11.83
2023-09-09T05:56:27.829Z,11.70
2023-09-09T05:59:18.226Z,11.37
2023-09-09T06:02:08.680Z,11.20
2023-09-09T06:04:58.172Z,11.57
2023-09-09T06:07:47.776Z,11.50
2023-09-09T06:10:37.211Z,11.03
2023-09-09T06:13:28.011Z,11.07
2023-09-09T06:16:17.429Z,11.37
2023-09-09T06:19:07.355Z,10.97
2023-09-09T06:21:57.395Z,11.43
2023-09-09T06:24:46.762Z,10.97
2023-09-09T06:27:36.243Z,11.27
2023-09-09T06:30:27.411Z,11.20
2023-09-09T06:33:16.860Z,11.20
2023-09-09T06:36:06.882Z,10.73
2023-09-09T06:38:56.776Z,10.60
2023-09-09T06:41:46.178Z,10.67
2023-09-09T06:44:35.498Z,10.33
2023-09-09T06:47:26.243Z,10.63
2023-09-09T06:50:15.627Z,10.40
2023-09-09T06:53:05.520Z,10.10
2023-09-09T06:55:54.998Z,10.40
2023-09-09T06:58:44.332Z,10.30
2023-09-09T07:01:33.876Z,9.90
2023-09-09T07:04:24.768Z,9.80
2023-09-09T07:07:16.991Z,9.93
2023-09-09T07:10:08.110Z,10.00
2023-09-09T07:12:57.518Z,10.50
2023-09-09T07:15:46.998Z,9.73
2023-09-09T07:18:36.492Z,9.52
2023-09-09T07:21:27.492Z,9.90
2023-09-09T07:24:16.892Z,9.85
2023-09-09T07:27:06.818Z,9.80
2023-09-09T07:29:56.185Z,9.63
2023-09-09T07:32:46.042Z,9.60
2023-09-09T07:35:37.479Z,9.65
2023-09-09T07:38:28.182Z,9.50
2023-09-09T07:41:17.598Z,9.20
2023-09-09T07:44:07.925Z,9.00
2023-09-09T07:46:57.386Z,9.40
2023-09-09T07:49:46.862Z,9.30
2023-09-09T07:52:36.184Z,9.10
2023-09-09T07:55:26.902Z,9.13
2023-09-09T07:58:16.298Z,8.98
2023-09-09T08:01:09.529Z,9.15
2023-09-09T08:03:58.939Z,9.77
2023-09-09T08:06:48.504Z,9.88
2023-09-09T08:09:37.894Z,9.77
2023-09-09T08:12:28.564Z,9.90
2023-09-09T08:15:26.758Z,9.43
2023-09-09T08:18:27.408Z,9.15
2023-09-09T08:21:16.810Z,9.32
2023-09-09T08:24:07.188Z,9.20
2023-09-09T08:26:56.544Z,9.35
2023-09-09T08:29:47.195Z,9.50
2023-09-09T08:32:36.629Z,9.02
2023-09-09T08:35:26.403Z,8.90
2023-09-09T08:38:15.710Z,9.18
2023-09-09T08:41:13.120Z,9.10
2023-09-09T08:44:12.460Z,9.63
2023-09-09T08:47:03.149Z,9.50
2023-09-09T08:49:55.263Z,9.00
2023-09-09T08:52:46.438Z,9.18
2023-09-09T08:55:38.801Z,9.32
2023-09-09T08:58:30.148Z,9.10
2023-09-09T09:01:20.016Z,8.93
2023-09-09T09:04:11.516Z,8.95
2023-09-09T09:07:03.408Z,8.98
2023-09-09T09:09:52.755Z,9.30
2023-09-09T09:12:45.371Z,8.98
2023-09-09T09:15:37.298Z,8.80
2023-09-09T09:18:26.856Z,9.02
2023-09-09T09:21:18.219Z,9.07
2023-09-09T09:24:08.356Z,8.80
2023-09-09T09:26:58.064Z,9.30
2023-09-09T09:29:48.999Z,9.05
2023-09-09T09:32:43.276Z,9.05
2023-09-09T09:35:34.179Z,9.10
2023-09-09T09:38:25.146Z,8.90
2023-09-09T09:41:14.557Z,8.98
2023-09-09T09:44:04.113Z,8.80
2023-09-09T09:47:07.895Z,9.30
2023-09-09T09:49:57.429Z,8.60
2023-09-09T09:52:50.707Z,9.23
2023-09-09T09:55:41.455Z,8.95
2023-09-09T09:58:35.538Z,8.65
2023-09-09T10:01:25.072Z,8.63
2023-09-09T10:04:19.189Z,8.90
2023-09-09T10:07:12.561Z,8.50
2023-09-09T10:10:08.944Z,8.65
2023-09-09T10:13:05.811Z,9.05
2023-09-09T10:15:56.966Z,8.93
2023-09-09T10:18:47.542Z,8.60
2023-09-09T10:21:42.597Z,8.38
2023-09-09T10:24:33.739Z,8.35
2023-09-09T10:27:24.246Z,8.60
2023-09-09T10:30:15.529Z,8.60
2023-09-09T10:33:08.827Z,8.80
2023-09-09T10:36:00.694Z,8.15
2023-09-09T10:38:50.831Z,8.30
2023-09-09T10:41:40.984Z,8.40
2023-09-09T10:44:30.342Z,8.60
2023-09-09T10:47:21.472Z,8.60
2023-09-09T10:50:12.115Z,8.57
2023-09-09T10:53:19.875Z,8.23
2023-09-09T10:56:25.070Z,8.80
2023-09-09T10:59:20.174Z,8.60
2023-09-09T11:02:25.307Z,9.00
2023-09-09T11:05:18.218Z,8.57
2023-09-09T11:08:38.085Z,8.70
2023-09-09T11:11:29.797Z,9.10
2023-09-09T11:14:21.575Z,9.05
2023-09-09T11:17:12.675Z,8.80
2023-09-09T11:20:02.119Z,8.80
2023-09-09T11:22:52.872Z,9.20
2023-09-09T11:25:43.442Z,9.20
2023-09-09T11:28:33.855Z,9.02
2023-09-09T11:31:24.512Z,9.50
2023-09-09T11:34:14.201Z,9.80
2023-09-09T11:37:05.391Z,10.13
2023-09-09T11:39:57.013Z,10.03
2023-09-09T11:42:53.396Z,10.17
2023-09-09T11:45:42.922Z,10.00
2023-09-09T11:48:32.375Z,10.03
2023-09-09T11:51:23.126Z,10.60
2023-09-09T11:54:15.514Z,11.17
2023-09-09T11:57:11.116Z,10.90
2023-09-09T12:00:01.684Z,10.93
2023-09-09T12:02:51.109Z,11.00
2023-09-09T12:05:40.546Z,10.73
2023-09-09T12:08:30.414Z,11.00
2023-09-09T12:11:20.903Z,11.63
2023-09-09T12:14:13.714Z,11.00
2023-09-09T12:17:03.243Z,11.03
2023-09-09T12:19:57.132Z,11.30
2023-09-09T12:22:49.248Z,11.13
2023-09-09T12:25:39.005Z,11.80
2023-09-09T12:28:28.317Z,11.30
2023-09-09T12:31:19.079Z,11.13
2023-09-09T12:34:09.915Z,11.73
2023-09-09T12:37:01.345Z,11.67
2023-09-09T12:40:01.897Z,11.23
2023-09-09T12:42:51.288Z,11.33
2023-09-09T12:45:49.006Z,11.20
2023-09-09T12:48:58.896Z,10.90
2023-09-09T12:51:48.290Z,11.20
2023-09-09T12:54:37.679Z,10.97
2023-09-09T12:57:27.029Z,11.80
2023-09-09T13:00:17.325Z,11.33
2023-09-09T13:03:07.129Z,10.87
2023-09-09T13:05:57.953Z,11.00
2023-09-09T13:08:47.276Z,10.57
2023-09-09T13:11:36.715Z,10.83
2023-09-09T13:14:27.022Z,11.10
2023-09-09T13:17:16.553Z,11.40
2023-09-09T13:20:08.036Z,11.33
2023-09-09T13:22:58.783Z,11.07
2023-09-09T13:25:48.127Z,11.30
2023-09-09T13:28:37.520Z,10.80
2023-09-09T13:31:27.038Z,11.40
2023-09-09T13:34:16.442Z,10.87
2023-09-09T13:37:06.128Z,10.90
2023-09-09T13:39:56.900Z,10.90
2023-09-09T13:42:46.917Z,11.13
2023-09-09T13:45:36.408Z,11.00
2023-09-09T13:48:25.775Z,11.20
2023-09-09T13:51:15.114Z,10.50
2023-09-09T13:54:05.029Z,11.30
2023-09-09T13:56:55.837Z,11.30
2023-09-09T13:59:45.275Z,12.00
2023-09-09T14:02:34.744Z,11.60
2023-09-09T14:05:24.154Z,11.40
2023-09-09T14:08:13.571Z,11.90
2023-09-09T14:11:03.316Z,10.90
2023-09-09T14:13:54.089Z,11.63
2023-09-09T14:16:43.404Z,11.20
2023-09-09T14:19:32.962Z,11.60
2023-09-09T14:22:22.276Z,11.37
2023-09-09T14:25:11.590Z,11.50
2023-09-09T14:28:00.943Z,11.50
2023-09-09T14:30:51.725Z,11.67
2023-09-09T14:33:41.069Z,11.57
2023-09-09T14:36:30.394Z,11.63
2023-09-09T14:39:19.790Z,12.07
2023-09-09T14:42:09.590Z,11.43
2023-09-09T14:44:58.881Z,11.80
2023-09-09T14:47:49.558Z,11.20
2023-09-09T14:50:39.110Z,10.97
2023-09-09T14:53:28.554Z,11.53
2023-09-09T14:56:18.108Z,11.60
2023-09-09T14:59:07.509Z,11.60
2023-09-09T15:01:56.900Z,11.70
2023-09-09T15:04:47.616Z,11.40
2023-09-09T15:07:36.947Z,11.20
2023-09-09T15:10:26.305Z,11.57
2023-09-09T15:13:15.620Z,10.93
2023-09-09T15:16:08.211Z,11.80
2023-09-09T15:18:57.624Z,11.10
2023-09-09T15:21:48.531Z,11.00
2023-09-09T15:24:37.885Z,11.80
2023-09-09T15:27:27.260Z,11.03
2023-09-09T15:30:16.780Z,11.53
2023-09-09T15:33:06.752Z,11.63
2023-09-09T15:36:00.012Z,11.20
2023-09-09T15:38:50.716Z,10.90
2023-09-09T15:41:40.077Z,11.70
2023-09-09T15:44:29.439Z,11.17
2023-09-09T15:47:18.870Z,11.50
2023-09-09T15:50:09.865Z,11.40
2023-09-09T15:52:59.638Z,11.60
2023-09-09T15:55:50.393Z,11.77
2023-09-09T15:58:40.846Z,10.63
2023-09-09T16:01:30.691Z,12.00
2023-09-09T16:04:20.189Z,11.37
2023-09-09T16:07:09.585Z,11.93
2023-09-09T16:09:59.845Z,11.80
2023-09-09T16:12:50.672Z,12.27
2023-09-09T16:15:40.059Z,12.37
2023-09-09T16:18:29.603Z,11.40
2023-09-09T16:21:20.097Z,11.43
2023-09-09T16:24:10.102Z,11.70
2023-09-09T16:26:59.424Z,11.60
2023-09-09T16:29:50.098Z,11.87
2023-09-09T16:32:39.650Z,11.73
2023-09-09T16:35:29.107Z,12.27
2023-09-09T16:38:18.429Z,11.83
2023-09-09T16:41:07.804Z,12.20
2023-09-09T16:43:57.219Z,12.27
2023-09-09T16:46:48.048Z,11.93
2023-09-09T16:49:37.409Z,11.80
2023-09-09T16:52:26.857Z,12.07
2023-09-09T16:55:16.660Z,11.93
2023-09-09T16:58:06.185Z,12.63
2023-09-09T17:00:55.553Z,12.23
2023-09-09T17:03:46.393Z,13.03
2023-09-09T17:06:35.816Z,12.30
2023-09-09T17:09:25.257Z,12.33
2023-09-09T17:12:14.595Z,12.67
2023-09-09T17:15:04.616Z,12.63
2023-09-09T17:17:53.995Z,12.60
2023-09-09T17:20:44.765Z,12.47
2023-09-09T17:23:36.266Z,12.40
2023-09-09T17:26:26.030Z,13.07
2023-09-09T17:29:15.393Z,12.90
2023-09-09T17:32:05.547Z,12.53
2023-09-09T17:34:54.950Z,12.63
2023-09-09T17:37:45.764Z,12.70
2023-09-09T17:40:35.154Z,12.17
2023-09-09T17:43:24.633Z,12.13
2023-09-09T17:46:13.997Z,12.60
2023-09-09T17:49:03.717Z,13.10
2023-09-09T17:51:53.064Z,13.37
2023-09-09T17:54:43.698Z,13.83
2023-09-09T17:57:33.441Z,13.80
2023-09-09T18:00:22.986Z,14.10
2023-09-09T18:03:12.307Z,13.60
2023-09-09T18:06:03.780Z,14.13
2023-09-09T18:08:54.410Z,13.73
2023-09-09T18:11:45.063Z,13.20
2023-09-09T18:14:34.752Z,14.00
2023-09-09T18:17:24.340Z,14.50
2023-09-09T18:20:13.776Z,15.60
2023-09-09T18:23:03.302Z,14.77
2023-09-09T18:25:58.174Z,14.20
2023-09-09T18:28:49.151Z,14.07
2023-09-09T18:31:38.631Z,14.20
2023-09-09T18:34:28.423Z,13.57
2023-09-09T18:37:17.795Z,13.67
2023-09-09T18:40:09.170Z,13.73
2023-09-09T18:42:58.614Z,14.07
2023-09-09T18:45:50.488Z,14.10
2023-09-09T18:48:40.087Z,13.67
2023-09-09T18:51:29.566Z,14.93
2023-09-09T18:54:18.899Z,14.20
2023-09-09T18:57:09.995Z,13.90
2023-09-09T18:59:59.596Z,14.00
2023-09-09T19:02:51.193Z,13.60
2023-09-09T19:05:42.877Z,13.30
2023-09-09T19:08:32.408Z,12.90
2023-09-09T19:11:21.790Z,12.60
2023-09-09T19:14:11.104Z,12.43
2023-09-09T19:17:00.470Z,12.33
2023-09-09T19:19:51.561Z,12.30
2023-09-09T19:22:40.962Z,12.70
2023-09-09T19:25:32.843Z,12.50
2023-09-09T19:28:24.312Z,13.17
2023-09-09T19:31:13.716Z,12.20
2023-09-09T19:34:03.116Z,13.10
2023-09-09T19:36:53.866Z,12.33
2023-09-09T19:39:43.291Z,12.23
2023-09-09T19:42:33.295Z,11.93
2023-09-09T19:45:22.617Z,12.47
2023-09-09T19:48:11.954Z,12.47
2023-09-09T19:51:01.377Z,12.73
2023-09-09T19:53:52.340Z,12.70
2023-09-09T19:56:41.706Z,13.67
2023-09-09T19:59:31.705Z,12.83
2023-09-09T20:02:21.193Z,12.80
2023-09-09T20:05:11.705Z,13.57
2023-09-09T20:08:01.145Z,12.50
2023-09-09T20:10:54.912Z,13.07
2023-09-09T20:13:44.488Z,13.30
2023-09-09T20:16:35.417Z,13.43
2023-09-09T20:19:24.910Z,12.43
2023-09-09T20:22:14.254Z,13.30
2023-09-09T20:25:03.580Z,13.10
2023-09-09T20:27:54.244Z,13.07
2023-09-09T20:30:43.705Z,12.80
2023-09-09T20:33:33.411Z,13.50
2023-09-09T20:36:24.304Z,13.13
2023-09-09T20:39:13.841Z,12.27
2023-09-09T20:42:03.657Z,12.60
2023-09-09T20:44:54.515Z,12.87
2023-09-09T20:47:45.930Z,13.00
2023-09-09T20:50:36.252Z,12.20
2023-09-09T20:53:25.638Z,12.37
2023-09-09T20:56:16.107Z,13.50
2023-09-09T20:59:07.114Z,12.93
2023-09-09T21:01:57.914Z,12.43
2023-09-09T21:04:47.378Z,12.53
2023-09-09T21:07:37.100Z,12.20
2023-09-09T21:10:27.297Z,12.50
2023-09-09T21:13:17.057Z,12.47
2023-09-09T21:16:06.814Z,13.00
2023-09-09T21:18:57.894Z,12.60
2023-09-09T21:21:47.306Z,12.10
2023-09-09T21:24:36.907Z,12.50
2023-09-09T21:27:26.937Z,12.93
2023-09-09T21:30:17.560Z,13.00
2023-09-09T21:33:07.964Z,12.33
2023-09-09T21:35:58.649Z,12.80
2023-09-09T21:38:48.050Z,13.03
2023-09-09T21:41:38.567Z,13.23
2023-09-09T21:44:27.938Z,12.90
2023-09-09T21:47:17.341Z,12.50
2023-09-09T21:50:08.920Z,13.20
2023-09-09T21:52:59.707Z,13.13
2023-09-09T21:55:49.240Z,12.50
2023-09-09T21:58:39.033Z,12.87
2023-09-09T22:01:28.585Z,12.50
2023-09-09T22:04:17.917Z,13.20
2023-09-09T22:07:07.284Z,13.27
2023-09-09T22:09:58.464Z,12.90
2023-09-09T22:12:47.929Z,12.90
2023-09-09T22:15:38.141Z,12.80
2023-09-09T22:18:27.572Z,12.73
2023-09-09T22:21:16.877Z,13.03
2023-09-09T22:24:06.800Z,13.67
2023-09-09T22:27:00.599Z,13.40
2023-09-09T22:29:54.069Z,13.67
2023-09-09T22:32:43.420Z,13.00
2023-09-09T22:35:32.938Z,13.10
2023-09-09T22:38:22.406Z,13.50
2023-09-09T22:41:11.777Z,12.97
2023-09-09T22:44:02.511Z,13.53
2023-09-09T22:46:53.097Z,13.00
2023-09-09T22:49:42.477Z,13.07
2023-09-09T22:52:32.043Z,12.63
2023-09-09T22:55:21.514Z,12.93
2023-09-09T22:58:11.235Z,14.10
2023-09-09T23:01:03.955Z,13.40
2023-09-09T23:03:53.489Z,12.57
2023-09-09T23:06:42.956Z,12.60
2023-09-09T23:09:33.132Z,13.53
2023-09-09T23:12:22.614Z,13.10
2023-09-09T23:15:12.618Z,13.37
2023-09-09T23:18:03.975Z,12.83
2023-09-09T23:20:53.327Z,12.30
2023-09-09T23:23:42.720Z,13.07
2023-09-09T23:26:32.464Z,13.37
2023-09-09T23:29:21.774Z,12.30
2023-09-09T23:32:11.259Z,12.60
2023-09-09T23:35:02.253Z,12.47
2023-09-09T23:37:51.606Z,13.13
2023-09-09T23:40:40.947Z,12.30
2023-09-09T23:43:30.352Z,13.27
2023-09-09T23:46:20.332Z,12.27
2023-09-09T23:49:09.863Z,12.20
2023-09-09T23:52:00.838Z,12.67
2023-09-09T23:54:50.175Z,12.40
2023-09-09T23:57:39.434Z,12.47
